Airfield :
LOGIN :

Register | Disclaimer

   EN    FR    IT 

 










Legend :    VFR   Marginal VFR   IFR   Intensive IFR   Very Intensive IFR
Visi :
Ceiling :
>= 8 km
>= 3000ft
5 to 8 km
1000 to 3000 ft
1500m to 5 km
500 to 1000 ft
800 to 1500m
200 to 500 ft
< 800m
< 200 ft
Symbols :   Thunderstorms  Fog  Heavy snow  Heavy precipitations  Wind > 20 kt
SIGMETs :     Misc.  Thunderstorms  Icing  Turbulence  Mountain Waves  Volcanic Ashes






- Airport Elevation : 72 ft
- IATA code : UDE


EHVK - Volkel Airbase

CURRENT METAR :
  • 270725Z AUTO 18007KT 150V210 9999 FEW054 SCT079 BKN086 02/01 Q1001 BLU 18009KT CAVOK BECMG BKN015

EXPIRED METARs :
  • 270707Z AUTO 18009KT 160V220 9999 SCT074 BKN080 OVC085 02/01 Q1001 BLU 18009KT CAVOK BECMG BKN015
  • 270655Z AUTO 18007KT 140V220 9999 SCT081 BKN087 OVC098 02/01 Q1001 BLU
  • 270625Z AUTO 19007KT 160V240 9999 BKN093 OVC100 02/01 Q1002 BLU
  • 270555Z AUTO 19006KT 170V230 9999 OVC100 02/01 Q1002 BLU
  • 270525Z AUTO 20006KT 180V240 9999 OVC110 02/01 Q1003 BLU
  • 270455Z AUTO 20006KT 170V240 9999 SCT045 BKN057 OVC063 02/01 Q1003 BLU

TAF TAF EHVK
Valid from the 27 at 06:00 until the 27 at 18:00 UTC


270546Z 2706/2718 17006KT 9999 SCT035 OVC060
BECMG 2707/2710 3000 RASN BKN006 OVC008
TEMPO 2707/2718 1800 -SNRA SCT002 OVC006
PROB30
TEMPO 2711/2717 1000 SNRA SCT001 BKN002
BECMG 2710/2713 13005KT
BECMG 2715/2718 29008KT



MET'MAP, your aeronautical weather chart ! - Copyright ORBIFLY December 2007 - Disclaimer

ORBIFLY MET'MAP TEAM :

Programming & Development : Alexandra Zaïnal
Concept & original design : Baudouin d'Aumeries
Assistance for programming : Marc-Olivier Méhu
Technical & hardware support : Manuel Goepfert

Contact : metmap@orbifly.com




SOURCES & CREDITS :

   NOAA